Terminal Aerodrome Forecast
Issued by NWS

Home | Current Version | Previous Version | Text Only | Print | Product List | Glossary On
Versions: 1 2 3 4 5 6 7 8 9 10 11 12 13 14 15
000
FTAK31 PAJN 241700
TAFAJN
TAF
PAJN 241726Z 2418/2518 10006KT P6SM FEW005 BKN045 OVC060
      TEMPO 2418/2420 -RA
     FM242000 11008KT P6SM VCSH SCT040 OVC060
     FM250300 09005KT P6SM VCSH SCT025 OVC035
     FM250700 08004KT 6SM -SHRA FEW010 SCT020 OVC030
     FM251700 10010KT 6SM -RA BR SCT010 OVC025=

USA.gov is the U.S. government's official web portal to all federal, state and local government web resources and services.